createdAt,value
2023-05-09T00:01:31.575Z,99543.94
2023-05-09T00:03:59.280Z,99549.22
2023-05-09T00:06:27.556Z,99542.16
2023-05-09T00:08:55.800Z,99540.44
2023-05-09T00:11:22.404Z,99537.81
2023-05-09T00:13:50.576Z,99532.97
2023-05-09T00:16:18.642Z,99538.72
2023-05-09T00:18:45.239Z,99537.91
2023-05-09T00:21:11.918Z,99532.72
2023-05-09T00:23:38.835Z,99513.00
2023-05-09T00:26:06.264Z,99525.78
2023-05-09T00:28:33.089Z,99530.91
2023-05-09T00:30:59.776Z,99524.78
2023-05-09T00:33:26.878Z,99512.84
2023-05-09T00:35:54.648Z,99492.44
2023-05-09T00:38:22.942Z,99523.91
2023-05-09T00:40:49.782Z,99497.59
2023-05-09T00:43:16.776Z,99517.78
2023-05-09T00:45:46.886Z,99513.44
2023-05-09T00:48:15.241Z,99521.34
2023-05-09T00:50:42.192Z,99517.00
2023-05-09T00:53:09.492Z,99515.19
2023-05-09T00:55:36.534Z,99502.44
2023-05-09T00:58:03.860Z,99509.06
2023-05-09T01:00:30.406Z,99516.16
2023-05-09T01:02:57.216Z,99517.94
2023-05-09T01:05:34.532Z,99517.00
2023-05-09T01:08:10.503Z,99506.00
2023-05-09T01:10:48.901Z,99519.75
2023-05-09T01:13:32.112Z,99518.88
2023-05-09T01:16:08.684Z,99498.25
2023-05-09T01:18:44.800Z,99511.91
2023-05-09T01:21:15.900Z,99514.56
2023-05-09T01:23:43.917Z,99507.56
2023-05-09T01:26:26.122Z,99508.50
2023-05-09T01:29:11.770Z,99501.66
2023-05-09T01:31:41.194Z,99509.41
2023-05-09T01:34:09.826Z,99509.53
2023-05-09T01:36:38.036Z,99499.00
2023-05-09T01:39:05.936Z,99504.22
2023-05-09T01:41:36.389Z,99481.28
2023-05-09T01:44:07.715Z,99495.72
2023-05-09T01:46:35.342Z,99499.88
2023-05-09T01:49:03.525Z,99495.53
2023-05-09T01:51:32.639Z,99500.03
2023-05-09T01:54:01.232Z,99499.09
2023-05-09T01:56:28.082Z,99489.75
2023-05-09T01:58:56.464Z,99495.53
2023-05-09T02:01:24.375Z,99500.81
2023-05-09T02:03:54.711Z,99502.63
2023-05-09T02:06:24.354Z,99487.09
2023-05-09T02:08:51.450Z,99492.03
2023-05-09T02:11:18.551Z,99478.06
2023-05-09T02:13:45.234Z,99484.19
2023-05-09T02:16:12.194Z,99491.19
2023-05-09T02:18:38.854Z,99480.69
2023-05-09T02:21:06.434Z,99472.19
2023-05-09T02:23:33.016Z,99485.88
2023-05-09T02:25:59.827Z,99481.53
2023-05-09T02:28:28.324Z,99482.50
2023-05-09T02:30:58.574Z,99478.16
2023-05-09T02:33:27.174Z,99479.25
2023-05-09T02:35:55.313Z,99478.16
2023-05-09T02:38:22.277Z,99468.78
2023-05-09T02:40:52.417Z,99461.19
2023-05-09T02:43:19.396Z,99484.28
2023-05-09T02:45:45.966Z,99482.56
2023-05-09T02:48:12.569Z,99474.84
2023-05-09T02:50:41.905Z,99472.09
2023-05-09T02:53:08.698Z,99479.19
2023-05-09T02:55:35.430Z,99474.94
2023-05-09T02:58:12.775Z,99483.59
2023-05-09T03:00:42.587Z,99488.03
2023-05-09T03:03:09.651Z,99486.34
2023-05-09T03:05:37.012Z,99483.69
2023-05-09T03:08:03.678Z,99481.03
2023-05-09T03:10:30.611Z,99495.09
2023-05-09T03:12:57.415Z,99474.50
2023-05-09T03:15:24.170Z,99480.63
2023-05-09T03:17:51.580Z,99488.19
2023-05-09T03:20:18.884Z,99489.91
2023-05-09T03:22:45.462Z,99482.91
2023-05-09T03:25:12.637Z,99489.13
2023-05-09T03:27:39.433Z,99488.28
2023-05-09T03:30:09.953Z,99486.47
2023-05-09T03:32:36.865Z,99492.63
2023-05-09T03:35:04.061Z,99491.78
2023-05-09T03:37:32.314Z,99493.56
2023-05-09T03:39:58.897Z,99482.41
2023-05-09T03:42:26.553Z,99494.50
2023-05-09T03:44:59.793Z,99498.84
2023-05-09T03:47:26.493Z,99497.16
2023-05-09T03:49:53.650Z,99499.78
2023-05-09T03:52:22.745Z,99484.38
2023-05-09T03:54:49.419Z,99496.31
2023-05-09T03:57:17.610Z,99498.94
2023-05-09T03:59:45.737Z,99495.44
2023-05-09T04:02:13.917Z,99497.16
2023-05-09T04:04:40.680Z,99488.53
2023-05-09T04:07:08.859Z,99490.16
2023-05-09T04:09:35.586Z,99483.34
2023-05-09T04:12:02.135Z,99486.47
2023-05-09T04:14:28.661Z,99488.28
2023-05-09T04:16:55.355Z,99493.41
2023-05-09T04:19:21.903Z,99492.56
2023-05-09T04:21:48.747Z,99496.81
2023-05-09T04:24:15.265Z,99490.69
2023-05-09T04:26:44.636Z,99490.59
2023-05-09T04:29:15.127Z,99487.94
2023-05-09T04:31:46.834Z,99487.00
2023-05-09T04:34:13.857Z,99485.22
2023-05-09T04:36:40.599Z,99490.44
2023-05-09T04:39:08.314Z,99480.69
2023-05-09T04:41:36.190Z,99473.03
2023-05-09T04:44:03.299Z,99468.00
2023-05-09T04:46:29.883Z,99478.22
2023-05-09T04:48:57.259Z,99483.25
2023-05-09T04:51:23.799Z,99488.38
2023-05-09T04:53:51.631Z,99479.00
2023-05-09T04:56:21.665Z,99461.78
2023-05-09T04:58:48.986Z,99473.72
2023-05-09T05:01:16.651Z,99476.44
2023-05-09T05:03:44.299Z,99483.84
2023-05-09T05:06:11.059Z,99482.84
2023-05-09T05:08:40.336Z,99458.19
2023-05-09T05:11:06.949Z,99483.78
2023-05-09T05:13:34.096Z,99488.03
2023-05-09T05:16:01.559Z,99486.56
2023-05-09T05:18:28.163Z,99485.38
2023-05-09T05:20:54.708Z,99484.34
2023-05-09T05:23:22.357Z,99477.47
2023-05-09T05:25:52.758Z,99469.34
2023-05-09T05:28:19.684Z,99471.91
2023-05-09T05:30:47.018Z,99471.91
2023-05-09T05:33:13.984Z,99475.31
2023-05-09T05:35:40.668Z,99480.59
2023-05-09T05:38:07.249Z,99473.53
2023-05-09T05:40:34.372Z,99471.72
2023-05-09T05:43:03.876Z,99478.72
2023-05-09T05:45:32.535Z,99483.13
2023-05-09T05:48:05.388Z,99482.97
2023-05-09T05:50:32.474Z,99457.25
2023-05-09T05:52:59.529Z,99464.31
2023-05-09T05:55:26.285Z,99473.06
2023-05-09T05:57:52.980Z,99467.69
2023-05-09T06:00:20.607Z,99469.41
2023-05-09T06:02:53.326Z,99472.03
2023-05-09T06:05:25.262Z,99466.84
2023-05-09T06:07:52.325Z,99468.47
2023-05-09T06:10:18.879Z,99470.19
2023-05-09T06:12:45.624Z,99465.72
2023-05-09T06:15:12.613Z,99463.19
2023-05-09T06:17:43.565Z,99470.91
2023-05-09T06:20:10.616Z,99477.06
2023-05-09T06:22:37.139Z,99444.44
2023-05-09T06:25:03.972Z,99461.16
2023-05-09T06:27:30.853Z,99456.19
2023-05-09T06:29:57.482Z,99470.19
2023-05-09T06:32:25.059Z,99462.84
2023-05-09T06:34:52.627Z,99461.91
2023-05-09T06:37:19.240Z,99466.34
2023-05-09T06:39:45.787Z,99459.34
2023-05-09T06:42:12.375Z,99465.31
2023-05-09T06:44:39.604Z,99445.72
2023-05-09T06:47:06.393Z,99457.38
2023-05-09T06:49:33.753Z,99457.22
2023-05-09T06:52:00.392Z,99455.50
2023-05-09T06:54:27.238Z,99447.41
2023-05-09T06:56:53.900Z,99453.44
2023-05-09T06:59:20.652Z,99448.09
2023-05-09T07:01:47.200Z,99442.69
2023-05-09T07:04:16.997Z,99442.44
2023-05-09T07:06:43.483Z,99459.81
2023-05-09T07:09:10.081Z,99447.34
2023-05-09T07:11:37.405Z,99441.03
2023-05-09T07:14:04.193Z,99418.63
2023-05-09T07:16:30.881Z,99431.78
2023-05-09T07:18:57.395Z,99431.69
2023-05-09T07:21:24.623Z,99426.19
2023-05-09T07:23:51.223Z,99431.31
2023-05-09T07:26:17.778Z,99431.13
2023-05-09T07:28:44.298Z,99427.44
2023-05-09T07:31:10.979Z,99410.56
2023-05-09T07:33:37.537Z,99404.66
2023-05-09T07:36:04.193Z,99414.59
2023-05-09T07:38:30.698Z,99417.06
2023-05-09T07:40:57.237Z,99405.44
2023-05-09T07:43:23.718Z,99417.63
2023-05-09T07:45:50.373Z,99416.59
2023-05-09T07:48:16.870Z,99412.91
2023-05-09T07:50:43.470Z,99411.09
2023-05-09T07:53:10.404Z,99410.09
2023-05-09T07:55:36.963Z,99404.69
2023-05-09T07:58:03.533Z,99405.38
2023-05-09T08:00:30.229Z,99399.03
2023-05-09T08:02:59.674Z,99359.59
2023-05-09T08:05:26.483Z,99402.25
2023-05-09T08:07:53.047Z,99404.78
2023-05-09T08:10:19.603Z,99402.06
2023-05-09T08:12:46.117Z,99398.38
2023-05-09T08:15:13.052Z,99398.28
2023-05-09T08:17:40.130Z,99400.72
2023-05-09T08:20:08.325Z,99396.19
2023-05-09T08:22:34.989Z,99387.19
2023-05-09T08:25:01.974Z,99362.69
2023-05-09T08:27:28.533Z,99386.91
2023-05-09T08:29:55.184Z,99371.00
2023-05-09T08:32:21.678Z,99370.72
2023-05-09T08:34:51.576Z,99377.63
2023-05-09T08:37:18.162Z,99339.25
2023-05-09T08:39:44.675Z,99357.09
2023-05-09T08:42:15.781Z,99367.47
2023-05-09T08:44:42.410Z,99358.47
2023-05-09T08:47:09.325Z,99354.88
2023-05-09T08:49:36.301Z,99306.56
2023-05-09T08:52:03.436Z,99354.69
2023-05-09T08:54:30.320Z,99333.16
2023-05-09T08:56:57.800Z,99331.34
2023-05-09T08:59:24.900Z,99354.19
2023-05-09T09:01:53.409Z,99361.19
2023-05-09T09:04:20.199Z,99351.31
2023-05-09T09:06:46.883Z,99357.38
2023-05-09T09:09:14.671Z,99330.75
2023-05-09T09:11:42.682Z,99351.91
2023-05-09T09:14:22.825Z,99357.09
2023-05-09T09:16:51.116Z,99348.50
2023-05-09T09:19:20.229Z,99348.84
2023-05-09T09:21:49.775Z,99278.69
2023-05-09T09:24:22.229Z,99338.13
2023-05-09T09:26:51.033Z,99340.56
2023-05-09T09:29:18.768Z,99325.06
2023-05-09T09:31:46.979Z,99329.81
2023-05-09T09:34:22.375Z,99325.34
2023-05-09T09:36:50.391Z,99313.81
2023-05-09T09:39:17.016Z,99324.31
2023-05-09T09:41:44.848Z,99318.91
2023-05-09T09:44:12.641Z,99316.28
2023-05-09T09:46:53.247Z,99297.34
2023-05-09T09:49:22.312Z,99311.81
2023-05-09T09:51:56.748Z,99317.97
2023-05-09T09:54:26.756Z,99316.28
2023-05-09T09:56:56.435Z,99309.16
2023-05-09T09:59:27.823Z,99313.31
2023-05-09T10:01:55.523Z,99310.56
2023-05-09T10:04:25.272Z,99312.34
2023-05-09T10:06:56.858Z,99311.38
2023-05-09T10:09:25.110Z,99295.19
2023-05-09T10:11:53.648Z,99308.63
2023-05-09T10:14:23.316Z,99313.84
2023-05-09T10:16:57.329Z,99313.84
2023-05-09T10:19:27.181Z,99304.50
2023-05-09T10:21:58.742Z,99302.91
2023-05-09T10:24:37.665Z,99299.22
2023-05-09T10:27:08.697Z,99288.19
2023-05-09T10:29:39.394Z,99306.97
2023-05-09T10:32:14.042Z,99302.53
2023-05-09T10:34:44.484Z,99305.91
2023-05-09T10:37:12.580Z,99299.53
2023-05-09T10:39:39.514Z,99292.22
2023-05-09T10:42:07.577Z,99302.72
2023-05-09T10:44:35.041Z,99283.22
2023-05-09T10:51:55.329Z,99279.19
2023-05-09T10:54:31.050Z,99278.47
2023-05-09T10:56:57.990Z,99251.84
2023-05-09T10:59:46.525Z,99271.88
2023-05-09T11:02:15.619Z,99268.28
2023-05-09T11:04:42.259Z,99263.81
2023-05-09T11:07:26.196Z,99267.31
2023-05-09T11:10:06.832Z,99254.06
2023-05-09T11:12:34.093Z,99251.41
2023-05-09T11:15:08.039Z,99257.44
2023-05-09T11:17:38.521Z,99259.06
2023-05-09T11:20:06.480Z,99235.59
2023-05-09T11:22:44.979Z,99239.63
2023-05-09T11:25:13.784Z,99253.31
2023-05-09T11:27:48.640Z,99242.59
2023-05-09T11:30:20.116Z,99239.81
2023-05-09T11:32:51.399Z,99235.16
2023-05-09T11:37:49.537Z,99220.81
2023-05-09T11:40:19.147Z,99213.72
2023-05-09T11:42:56.191Z,99218.94
2023-05-09T11:45:28.199Z,99212.69
2023-05-09T11:47:55.064Z,99199.31
2023-05-09T11:50:21.685Z,99194.84
2023-05-09T11:52:51.588Z,99189.09
2023-05-09T11:55:20.329Z,99193.03
2023-05-09T11:57:52.262Z,99197.41
2023-05-09T12:00:24.007Z,99198.22
2023-05-09T12:02:51.799Z,99191.03
2023-05-09T12:05:22.890Z,99181.13
2023-05-09T12:07:50.056Z,99189.00
2023-05-09T12:10:20.476Z,99181.75
2023-05-09T12:12:52.801Z,99181.88
2023-05-09T12:15:21.461Z,99187.81
2023-05-09T12:18:01.356Z,99096.75
2023-05-09T12:20:28.656Z,99172.63
2023-05-09T12:22:55.839Z,99168.03
2023-05-09T12:25:22.698Z,99167.53
2023-05-09T12:27:49.220Z,99167.97
2023-05-09T12:30:16.329Z,99159.81
2023-05-09T12:32:43.633Z,99154.06
2023-05-09T12:35:12.073Z,99143.94
2023-05-09T12:37:39.168Z,99162.41
2023-05-09T12:40:12.455Z,99152.63
2023-05-09T12:42:40.012Z,99131.00
2023-05-09T12:45:11.190Z,99141.81
2023-05-09T12:47:39.049Z,99147.94
2023-05-09T12:50:06.973Z,99131.84
2023-05-09T12:52:35.359Z,99146.47
2023-05-09T12:55:15.216Z,99115.47
2023-05-09T12:57:43.970Z,99150.88
2023-05-09T13:00:12.070Z,99139.97
2023-05-09T13:02:42.345Z,99130.63
2023-05-09T13:05:16.012Z,99132.97
2023-05-09T13:07:47.736Z,99120.69
2023-05-09T13:10:15.344Z,99095.91
2023-05-09T13:12:48.265Z,99114.78
2023-05-09T13:15:22.514Z,99108.75
2023-05-09T13:17:51.081Z,99101.13
2023-05-09T13:20:18.838Z,99120.13
2023-05-09T13:22:46.332Z,99120.69
2023-05-09T13:25:13.567Z,99108.88
2023-05-09T13:27:40.308Z,99114.81
2023-05-09T13:30:07.774Z,99101.66
2023-05-09T13:32:35.110Z,99099.97
2023-05-09T13:35:01.836Z,99109.72
2023-05-09T13:37:28.581Z,99107.81
2023-05-09T13:39:55.504Z,99089.56
2023-05-09T13:42:22.107Z,99094.09
2023-05-09T13:44:48.751Z,99095.75
2023-05-09T13:47:15.655Z,99090.47
2023-05-09T13:49:42.121Z,99088.66
2023-05-09T13:52:08.988Z,99075.59
2023-05-09T13:54:35.680Z,99082.41
2023-05-09T13:57:05.922Z,99079.75
2023-05-09T13:59:34.697Z,99082.41
2023-05-09T14:02:01.693Z,99083.03
2023-05-09T14:04:29.709Z,99071.34
2023-05-09T14:06:56.356Z,99075.06
2023-05-09T14:09:23.217Z,99087.88
2023-05-09T14:11:51.527Z,99072.78
2023-05-09T14:14:21.924Z,99078.72
2023-05-09T14:16:49.310Z,99049.25
2023-05-09T14:19:16.886Z,99060.72
2023-05-09T14:21:44.719Z,99045.13
2023-05-09T14:24:14.340Z,99055.78
2023-05-09T14:26:42.515Z,99067.53
2023-05-09T14:29:09.301Z,99046.72
2023-05-09T14:31:36.062Z,99078.00
2023-05-09T14:34:06.166Z,99075.16
2023-05-09T14:36:33.077Z,99073.31
2023-05-09T14:38:59.613Z,99068.88
2023-05-09T14:41:26.773Z,99067.06
2023-05-09T14:43:53.426Z,99071.41
2023-05-09T14:46:20.208Z,99049.69
2023-05-09T14:48:46.909Z,99062.38
2023-05-09T14:51:14.200Z,99056.09
2023-05-09T14:53:44.060Z,99058.53
2023-05-09T14:56:13.382Z,99060.13
2023-05-09T14:58:39.946Z,99047.66
2023-05-09T15:01:06.648Z,99050.19
2023-05-09T15:03:33.190Z,99044.88
2023-05-09T15:05:59.824Z,99051.06
2023-05-09T15:08:27.022Z,99039.38
2023-05-09T15:10:56.402Z,99029.81
2023-05-09T15:13:23.415Z,99022.47
2023-05-09T15:15:49.962Z,99030.44
2023-05-09T15:18:18.332Z,99022.56
2023-05-09T15:20:44.946Z,99021.47
2023-05-09T15:23:13.108Z,99018.25
2023-05-09T15:25:42.984Z,99013.63
2023-05-09T15:28:09.473Z,99020.53
2023-05-09T15:30:38.306Z,99017.88
2023-05-09T15:33:05.297Z,99013.50
2023-05-09T15:35:31.900Z,99015.22
2023-05-09T15:37:58.721Z,99008.09
2023-05-09T15:40:25.608Z,99011.59
2023-05-09T15:42:52.226Z,99001.84
2023-05-09T15:45:18.807Z,98987.44
2023-05-09T15:47:45.532Z,98998.31
2023-05-09T15:50:12.881Z,98990.59
2023-05-09T15:52:39.727Z,98992.19
2023-05-09T15:55:07.167Z,98991.22
2023-05-09T15:57:35.162Z,98985.03
2023-05-09T16:00:01.732Z,98959.28
2023-05-09T16:02:39.058Z,98989.53
2023-05-09T16:05:06.209Z,98980.81
2023-05-09T16:07:34.665Z,98983.34
2023-05-09T16:10:02.193Z,98974.53
2023-05-09T16:12:28.800Z,98974.53
2023-05-09T16:14:55.441Z,98969.22
2023-05-09T16:17:21.936Z,98968.38
2023-05-09T16:19:48.735Z,98965.84
2023-05-09T16:22:15.220Z,98970.31
2023-05-09T16:24:41.957Z,98967.78
2023-05-09T16:27:08.532Z,98972.97
2023-05-09T16:29:35.114Z,98963.44
2023-05-09T16:32:04.127Z,98952.91
2023-05-09T16:34:30.797Z,98965.22
2023-05-09T16:36:57.379Z,98947.59
2023-05-09T16:39:23.995Z,98946.03
2023-05-09T16:41:50.524Z,98947.72
2023-05-09T16:44:17.257Z,98917.91
2023-05-09T16:46:43.785Z,98946.03
2023-05-09T16:49:11.089Z,98924.78
2023-05-09T16:51:37.673Z,98932.41
2023-05-09T16:54:04.261Z,98938.31
2023-05-09T16:56:30.859Z,98948.94
2023-05-09T16:58:57.397Z,98940.84
2023-05-09T17:01:23.946Z,98948.06
2023-05-09T17:03:51.143Z,98929.97
2023-05-09T17:06:18.455Z,98934.94
2023-05-09T17:08:46.155Z,98947.38
2023-05-09T17:11:15.488Z,98929.97
2023-05-09T17:13:44.734Z,98932.53
2023-05-09T17:16:11.276Z,98933.34
2023-05-09T17:18:38.490Z,98918.03
2023-05-09T17:21:05.440Z,98923.81
2023-05-09T17:23:32.434Z,98931.19
2023-05-09T17:25:59.134Z,98919.47
2023-05-09T17:28:25.696Z,98926.69
2023-05-09T17:30:52.491Z,98924.44
2023-05-09T17:33:19.337Z,98906.78
2023-05-09T17:35:49.413Z,98922.94
2023-05-09T17:38:16.145Z,98932.47
2023-05-09T17:40:43.369Z,98914.84
2023-05-09T17:43:10.577Z,98914.75
2023-05-09T17:45:38.009Z,98929.69
2023-05-09T17:48:04.859Z,98938.16
2023-05-09T17:50:32.942Z,98925.59
2023-05-09T17:52:59.547Z,98930.56
2023-05-09T17:55:26.191Z,98933.34
2023-05-09T17:57:52.873Z,98910.00
2023-05-09T18:00:19.708Z,98910.59
2023-05-09T18:02:48.103Z,98923.91
2023-05-09T18:05:16.503Z,98924.03
2023-05-09T18:07:43.740Z,98919.19
2023-05-09T18:10:10.868Z,98924.28
2023-05-09T18:12:37.567Z,98912.78
2023-05-09T18:15:05.937Z,98879.19
2023-05-09T18:17:37.840Z,98874.34
2023-05-09T18:22:19.360Z,98918.56
2023-05-09T18:24:46.193Z,98888.22
2023-05-09T18:27:12.814Z,98913.84
2023-05-09T18:29:39.628Z,98925.06
2023-05-09T18:32:06.897Z,98918.19
2023-05-09T18:34:33.841Z,98898.22
2023-05-09T18:37:00.352Z,98925.50
2023-05-09T18:39:27.545Z,98924.16
2023-05-09T18:41:54.292Z,98925.59
2023-05-09T18:44:20.878Z,98923.19
2023-05-09T18:46:47.429Z,98931.16
2023-05-09T18:49:18.541Z,98927.75
2023-05-09T18:51:45.327Z,98932.22
2023-05-09T18:54:14.757Z,98931.63
2023-05-09T18:56:43.992Z,98936.91
2023-05-09T18:59:16.466Z,98930.75
2023-05-09T19:01:46.024Z,98928.47
2023-05-09T19:04:14.037Z,98918.81
2023-05-09T19:06:42.178Z,98938.13
2023-05-09T19:09:08.839Z,98903.06
2023-05-09T19:11:35.875Z,98928.56
2023-05-09T19:14:05.270Z,98923.97
2023-05-09T19:16:32.197Z,98935.69
2023-05-09T19:19:10.285Z,98915.50
2023-05-09T19:21:41.707Z,98921.94
2023-05-09T19:24:09.329Z,98904.72
2023-05-09T19:26:35.953Z,98891.69
2023-05-09T19:29:10.086Z,98923.72
2023-05-09T19:31:37.463Z,98923.72
2023-05-09T19:34:04.083Z,98919.41
2023-05-09T19:36:34.108Z,98918.53
2023-05-09T19:39:00.680Z,98918.78
2023-05-09T19:41:27.296Z,98916.13
2023-05-09T19:43:58.001Z,98914.19
2023-05-09T19:46:26.767Z,98892.31
2023-05-09T19:48:58.295Z,98915.88
2023-05-09T19:51:25.126Z,98870.44
2023-05-09T19:53:59.293Z,98916.13
2023-05-09T19:56:26.043Z,98918.03
2023-05-09T19:58:54.891Z,98916.34
2023-05-09T20:01:26.126Z,98890.56
2023-05-09T20:03:53.696Z,98914.03
2023-05-09T20:06:20.843Z,98891.19
2023-05-09T20:08:47.653Z,98882.00
2023-05-09T20:11:15.181Z,98915.22
2023-05-09T20:13:43.095Z,98900.72
2023-05-09T20:16:12.897Z,98900.09
2023-05-09T20:18:39.667Z,98904.25
2023-05-09T20:21:09.711Z,98911.13
2023-05-09T20:23:37.061Z,98912.06
2023-05-09T20:26:03.864Z,98881.84
2023-05-09T20:28:31.933Z,98914.84
2023-05-09T20:30:58.495Z,98912.19
2023-05-09T20:33:25.049Z,98910.50
2023-05-09T20:35:51.536Z,98882.34
2023-05-09T20:38:18.106Z,98902.63
2023-05-09T20:40:45.914Z,98902.53
2023-05-09T20:43:12.547Z,98859.28
2023-05-09T20:45:39.194Z,98899.97
2023-05-09T20:48:06.644Z,98904.25
2023-05-09T20:50:35.725Z,98891.53
2023-05-09T20:53:04.501Z,98900.59
2023-05-09T20:55:30.994Z,98899.66
2023-05-09T20:57:57.916Z,98858.84
2023-05-09T21:00:24.612Z,98896.91
2023-05-09T21:02:51.271Z,98871.66
2023-05-09T21:05:17.788Z,98891.59
2023-05-09T21:07:44.404Z,98899.44
2023-05-09T21:10:11.351Z,98888.94
2023-05-09T21:12:37.965Z,98869.50
2023-05-09T21:15:05.208Z,98884.06
2023-05-09T21:17:32.065Z,98891.59
2023-05-09T21:19:58.973Z,98880.38
2023-05-09T21:22:25.697Z,98869.03
2023-05-09T21:24:52.717Z,98882.66
2023-05-09T21:27:19.540Z,98881.84
2023-05-09T21:29:49.264Z,98884.47
2023-05-09T21:32:16.950Z,98876.53
2023-05-09T21:34:43.502Z,98879.19
2023-05-09T21:37:10.153Z,98873.88
2023-05-09T21:39:36.661Z,98858.31
2023-05-09T21:42:03.345Z,98879.19
2023-05-09T21:44:29.937Z,98878.22
2023-05-09T21:46:56.717Z,98877.38
2023-05-09T21:49:27.185Z,98862.78
2023-05-09T21:51:54.027Z,98859.38
2023-05-09T21:54:20.947Z,98872.06
2023-05-09T21:56:47.582Z,98858.78
2023-05-09T21:59:14.197Z,98878.94
2023-05-09T22:01:41.773Z,98876.41
2023-05-09T22:06:34.953Z,98872.19
2023-05-09T22:09:01.737Z,98876.66
2023-05-09T22:11:28.246Z,98873.59
2023-05-09T22:13:55.403Z,98880.25
2023-05-09T22:16:22.425Z,98874.94
2023-05-09T22:18:49.368Z,98875.06
2023-05-09T22:21:16.084Z,98858.88
2023-05-09T22:23:43.704Z,98870.72
2023-05-09T22:26:10.354Z,98875.28
2023-05-09T22:28:37.097Z,98841.38
2023-05-09T22:31:06.677Z,98870.94
2023-05-09T22:33:34.200Z,98867.47
2023-05-09T22:36:01.159Z,98859.63
2023-05-09T22:38:27.775Z,98856.97
2023-05-09T22:40:54.283Z,98851.78
2023-05-09T22:43:21.570Z,98759.97
2023-05-09T22:45:48.146Z,98844.66
2023-05-09T22:48:15.645Z,98844.41
2023-05-09T22:50:42.261Z,98833.44
2023-05-09T22:53:09.242Z,98860.91
2023-05-09T22:55:36.480Z,98853.91
2023-05-09T22:58:03.810Z,98841.38
2023-05-09T23:00:30.578Z,98848.75
2023-05-09T23:02:59.241Z,98826.94
2023-05-09T23:05:25.983Z,98842.94
2023-05-09T23:07:52.689Z,98844.66
2023-05-09T23:10:19.323Z,98832.03
2023-05-09T23:12:45.950Z,98820.59
2023-05-09T23:15:12.592Z,98828.22
2023-05-09T23:17:39.137Z,98841.25
2023-05-09T23:20:06.337Z,98834.25
2023-05-09T23:22:34.598Z,98826.84
2023-05-09T23:25:01.174Z,98771.81
2023-05-09T23:27:28.390Z,98833.50
2023-05-09T23:29:55.258Z,98791.00
2023-05-09T23:32:21.986Z,98827.69
2023-05-09T23:34:48.621Z,98824.09
2023-05-09T23:37:15.262Z,98817.22
2023-05-09T23:39:41.808Z,98819.72
2023-05-09T23:42:08.503Z,98812.75
2023-05-09T23:44:35.281Z,98817.22
2023-05-09T23:47:02.475Z,98815.63
2023-05-09T23:49:29.205Z,98816.47
2023-05-09T23:51:55.906Z,98806.56
2023-05-09T23:54:24.271Z,98812.13
2023-05-09T23:56:50.929Z,98808.13
2023-05-09T23:59:17.619Z,98784.25
